Time;durP1;ratioP1;P1;durP2;ratioP2;P2;SDS_P1;SDS_P2;PMS_P1;PMS_P2;Temp;Humidity;BMP_temperature;BMP_pressure;BME280_temperature;BME280_humidity;BME280_pressure;Samples;Min_cycle;Max_cycle;Signal;HPM_P1;HPM_P2
2022/02/12 00:00:49;;;;;;;85.72;33.25;;;0.20;47.90;;;;;;4886495;29;20483;-85
2022/02/12 00:03:15;;;;;;;85.50;30.87;;;0.20;44.30;;;;;;4886715;29;20296;-86
2022/02/12 00:05:42;;;;;;;84.03;28.80;;;0.20;48.70;;;;;;4886481;29;20205;-86
2022/02/12 00:08:08;;;;;;;80.05;36.55;;;0.20;47.80;;;;;;4886960;29;20529;-86
2022/02/12 00:10:34;;;;;;;84.30;38.78;;;0.10;56.70;;;;;;4887537;29;20174;-86
2022/02/12 00:13:00;;;;;;;83.35;35.50;;;0.10;58.90;;;;;;4887008;29;20177;-86
2022/02/12 00:15:26;;;;;;;83.33;35.97;;;0.10;53.70;;;;;;4887185;29;20269;-86
2022/02/12 00:17:53;;;;;;;79.97;33.40;;;0.10;54.20;;;;;;4886453;29;20167;-86
2022/02/12 00:20:22;;;;;;;85.57;36.40;;;0.10;55.50;;;;;;4887184;29;20411;-86
2022/02/12 00:22:48;;;;;;;82.60;36.58;;;0.00;63.40;;;;;;4885421;29;20181;-86
2022/02/12 00:25:14;;;;;;;83.10;34.00;;;0.00;67.70;;;;;;4886952;29;20226;-86
2022/02/12 00:27:39;;;;;;;81.00;33.90;;;0.00;66.70;;;;;;4885416;29;20466;-85
2022/02/12 00:30:06;;;;;;;91.63;39.70;;;-0.10;60.40;;;;;;4886630;29;20182;-86
2022/02/12 00:32:32;;;;;;;81.00;36.13;;;-0.10;72.50;;;;;;4886596;29;20174;-86
2022/02/12 00:35:01;;;;;;;83.67;39.37;;;-0.20;82.00;;;;;;4886150;29;20194;-85
2022/02/12 00:37:28;;;;;;;81.38;38.97;;;-0.20;92.60;;;;;;4887750;29;20167;-86
2022/02/12 00:39:54;;;;;;;81.25;32.22;;;-0.20;94.80;;;;;;4886246;29;20170;-86
2022/02/12 00:42:22;;;;;;;78.33;32.13;;;-0.10;99.90;;;;;;4886743;29;20181;-86
2022/02/12 00:44:48;;;;;;;84.55;36.17;;;-0.10;99.90;;;;;;4885416;29;20431;-86
2022/02/12 00:47:14;;;;;;;84.67;35.97;;;-0.10;99.90;;;;;;4884706;29;20581;-86
2022/02/12 00:49:39;;;;;;;83.80;30.90;;;-0.10;99.90;;;;;;4886439;29;20479;-86
2022/02/12 00:52:05;;;;;;;86.97;32.37;;;-0.10;99.90;;;;;;4885426;29;20174;-86
2022/02/12 00:54:32;;;;;;;83.70;32.37;;;-0.10;99.90;;;;;;4884734;29;20234;-86
2022/02/12 00:57:01;;;;;;;87.20;35.90;;;-0.20;99.90;;;;;;4885056;29;20506;-86
2022/02/12 00:59:27;;;;;;;79.38;30.92;;;-0.10;99.90;;;;;;4884457;29;20167;-86
2022/02/12 01:01:53;;;;;;;81.20;32.73;;;-0.20;99.90;;;;;;4884315;29;20257;-86
2022/02/12 01:04:18;;;;;;;82.93;33.75;;;-0.20;99.90;;;;;;4884801;29;20234;-86
2022/02/12 01:06:44;;;;;;;86.20;37.60;;;-0.20;99.90;;;;;;4885485;29;20326;-85
2022/02/12 01:09:10;;;;;;;83.30;33.70;;;-0.20;99.90;;;;;;4884912;29;20539;-86
2022/02/12 01:11:39;;;;;;;88.93;35.00;;;-0.20;99.90;;;;;;4885593;29;20888;-86
2022/02/12 01:14:05;;;;;;;82.93;32.10;;;-0.20;99.90;;;;;;4885123;29;20174;-85
2022/02/12 01:16:33;;;;;;;81.13;33.47;;;-0.30;99.90;;;;;;4883282;29;20667;-86
2022/02/12 01:18:59;;;;;;;81.22;37.30;;;-0.30;99.90;;;;;;4884554;29;20414;-86
2022/02/12 01:21:24;;;;;;;81.57;33.33;;;-0.30;99.90;;;;;;4884179;29;20230;-85
2022/02/12 01:23:50;;;;;;;81.97;35.43;;;-0.30;99.90;;;;;;4883279;29;20204;-86
2022/02/12 01:26:19;;;;;;;81.27;35.70;;;-0.30;99.90;;;;;;4883826;29;20742;-86
2022/02/12 01:28:45;;;;;;;84.72;31.35;;;-0.40;99.90;;;;;;4884055;29;20198;-86
2022/02/12 01:31:10;;;;;;;85.33;37.33;;;-0.40;99.90;;;;;;4884220;29;20215;-86
2022/02/12 01:33:36;;;;;;;81.37;36.10;;;-0.30;99.90;;;;;;4883939;29;20171;-86
2022/02/12 01:36:02;;;;;;;81.80;39.03;;;-0.40;99.90;;;;;;4884175;29;20190;-86
2022/02/12 01:38:29;;;;;;;80.93;32.03;;;-0.30;1.00;;;;;;4886010;29;20226;-86
2022/02/12 01:40:56;;;;;;;80.80;35.13;;;-0.30;1.00;;;;;;4885058;29;20414;-86
2022/02/12 01:43:22;;;;;;;82.15;36.65;;;-0.30;1.00;;;;;;4883878;29;20262;-86
2022/02/12 01:45:47;;;;;;;83.50;35.60;;;-0.40;1.00;;;;;;4884108;29;20221;-86
2022/02/12 01:48:13;;;;;;;84.87;41.87;;;-0.40;1.00;;;;;;4882515;29;20723;-87
2022/02/12 01:50:40;;;;;;;83.07;34.27;;;-0.40;14.90;;;;;;4884261;29;20181;-86
2022/02/12 01:53:08;;;;;;;82.63;32.97;;;-0.40;99.90;;;;;;4886200;29;20256;-86
2022/02/12 01:55:33;;;;;;;81.93;31.65;;;-0.40;99.90;;;;;;4883947;29;20187;-85
2022/02/12 01:57:59;;;;;;;81.57;31.33;;;-0.40;99.90;;;;;;4884218;29;20181;-85
2022/02/12 02:00:26;;;;;;;88.13;38.43;;;-0.40;1.00;;;;;;4885362;29;20419;-85
2022/02/12 02:02:52;;;;;;;76.05;29.90;;;-0.40;1.00;;;;;;4885390;29;20166;-85
2022/02/12 02:05:19;;;;;;;82.80;32.30;;;-0.30;25.40;;;;;;4884215;29;20536;-85
2022/02/12 02:07:46;;;;;;;83.25;31.58;;;-0.30;99.90;;;;;;4884333;29;20510;-85
2022/02/12 02:10:15;;;;;;;82.35;32.03;;;-0.30;99.90;;;;;;4867471;29;20185;-85
2022/02/12 02:12:44;;;;;;;78.40;34.38;;;-0.30;99.90;;;;;;4884218;29;20174;-85
2022/02/12 02:15:10;;;;;;;87.75;37.33;;;-0.20;99.90;;;;;;4883863;29;20197;-85
2022/02/12 02:17:38;;;;;;;87.50;41.23;;;-0.20;1.00;;;;;;4884228;29;20170;-85
2022/02/12 02:20:06;;;;;;;90.18;37.55;;;-0.20;1.00;;;;;;4883614;29;20221;-85
2022/02/12 02:22:56;;;;;;;88.80;35.30;;;-0.30;1.00;;;;;;4883615;29;20178;-85
2022/02/12 02:25:23;;;;;;;82.68;31.13;;;-0.30;99.90;;;;;;4883645;29;20241;-86
2022/02/12 02:27:49;;;;;;;87.50;38.97;;;-0.20;99.90;;;;;;4883077;29;20286;-85
2022/02/12 02:30:26;;;;;;;77.50;33.83;;;-0.20;99.90;;;;;;4884072;29;20228;-86
2022/02/12 02:32:52;;;;;;;82.32;38.72;;;-0.20;99.90;;;;;;4884141;29;20179;-85
2022/02/12 02:35:19;;;;;;;84.90;39.43;;;-0.20;99.90;;;;;;4882343;29;20241;-85
2022/02/12 02:37:51;;;;;;;83.10;36.50;;;-0.20;99.90;;;;;;4883579;29;20407;-85
2022/02/12 02:40:21;;;;;;;80.07;41.88;;;-0.30;1.00;;;;;;4882840;29;20260;-85
2022/02/12 02:42:48;;;;;;;81.45;38.03;;;-0.30;1.00;;;;;;4882685;29;20171;-85
2022/02/12 02:45:14;;;;;;;80.88;39.60;;;-0.20;1.00;;;;;;4881510;29;20205;-85
2022/02/12 02:47:41;;;;;;;85.70;38.87;;;-0.30;1.00;;;;;;4882456;29;20199;-85
2022/02/12 02:56:05;;;;;;;81.93;35.53;;;-0.30;72.20;;;;;;4882528;29;20249;-85
2022/02/12 02:58:41;;;;;;;83.63;38.70;;;-0.30;99.90;;;;;;4882525;29;20627;-85
2022/02/12 03:01:15;;;;;;;80.32;32.33;;;-0.30;99.90;;;;;;4880460;29;20170;-85
2022/02/12 03:03:43;;;;;;;78.95;35.17;;;-0.30;99.90;;;;;;4882032;29;20169;-85
2022/02/12 03:06:10;;;;;;;81.78;38.88;;;-0.30;99.90;;;;;;4865357;29;20567;-85
2022/02/12 03:08:36;;;;;;;83.60;34.03;;;-0.30;99.90;;;;;;4881866;29;20203;-85
2022/02/12 03:11:05;;;;;;;80.55;34.20;;;-0.30;99.90;;;;;;4880986;29;20174;-86
2022/02/12 03:13:38;;;;;;;81.13;39.50;;;-0.30;99.90;;;;;;4881696;29;20524;-85
2022/02/12 03:16:04;;;;;;;79.20;35.55;;;-0.30;99.90;;;;;;4882416;29;20418;-87
2022/02/12 03:18:33;;;;;;;77.90;32.97;;;-0.30;99.90;;;;;;4883535;29;20254;-86
2022/02/12 03:20:58;;;;;;;81.95;34.83;;;-0.30;99.90;;;;;;4883578;29;20182;-87
2022/02/12 03:23:31;;;;;;;82.20;34.13;;;-0.30;99.90;;;;;;4882552;29;20178;-85
2022/02/12 03:26:00;;;;;;;82.25;33.55;;;-0.30;99.90;;;;;;4881177;29;20446;-85
2022/02/12 03:28:29;;;;;;;84.70;41.83;;;-0.40;99.90;;;;;;4882190;29;20197;-86
2022/02/12 03:30:58;;;;;;;83.00;40.42;;;-0.40;99.90;;;;;;4880978;29;20179;-86
2022/02/12 03:33:27;;;;;;;82.40;33.03;;;-0.40;99.90;;;;;;4882311;29;20167;-87
2022/02/12 03:35:56;;;;;;;77.57;32.78;;;-0.50;99.90;;;;;;4880926;29;20198;-86
2022/02/12 03:38:35;;;;;;;87.93;35.70;;;-0.40;1.00;;;;;;4881256;29;20181;-86
2022/02/12 03:41:14;;;;;;;85.80;34.22;;;-0.50;1.00;;;;;;4882698;29;20154;-86
2022/02/12 03:43:43;;;;;;;82.78;32.38;;;-0.50;1.00;;;;;;4882445;29;20675;-85
2022/02/12 03:46:25;;;;;;;80.28;33.67;;;-0.50;1.00;;;;;;4881822;29;20250;-86
2022/02/12 03:49:00;;;;;;;80.50;30.55;;;-0.50;1.00;;;;;;4881357;29;20217;-86
2022/02/12 03:51:29;;;;;;;74.32;27.80;;;-0.50;1.00;;;;;;4882272;29;20154;-86
2022/02/12 03:54:08;;;;;;;74.63;24.08;;;-0.50;1.00;;;;;;4880324;29;20277;-86
2022/02/12 03:56:54;;;;;;;81.50;34.15;;;-0.60;1.00;;;;;;4880257;29;20194;-86
2022/02/12 03:59:36;;;;;;;77.90;27.17;;;-0.60;1.00;;;;;;4881256;29;20167;-86
2022/02/12 04:02:25;;;;;;;;;;;;;;;;;;;;;
2022/02/12 04:05:10;;;;;;;;;;;;;;;;;;;;;
2022/02/12 04:07:54;;;;;;;80.05;29.50;;;-0.70;1.00;;;;;;4881982;29;20195;-86
2022/02/12 04:10:46;;;;;;;;;;;;;;;;;;;;;
2022/02/12 04:13:46;;;;;;;;;;;;;;;;;;;;;
2022/02/12 04:16:25;;;;;;;75.95;25.08;;;-0.80;1.00;;;;;;4859896;29;20713;-86
2022/02/12 04:18:58;;;;;;;79.90;29.58;;;-0.90;1.00;;;;;;4879784;29;20214;-86
2022/02/12 04:21:54;;;;;;;78.53;30.40;;;-0.80;1.00;;;;;;4880193;29;20639;-86
2022/02/12 04:24:46;;;;;;;79.40;27.30;;;-0.80;1.00;;;;;;4826090;29;20187;-86
2022/02/12 04:27:50;;;;;;;75.25;24.10;;;-0.90;2.30;;;;;;4881781;29;20226;-87
2022/02/12 04:37:42;;;;;;;72.63;21.70;;;-1.00;17.60;;;;;;4881528;29;20174;-87
2022/02/12 04:41:03;;;;;;;;;;;;;;;;;;;;;
2022/02/12 04:44:00;;;;;;;75.05;23.02;;;-1.10;99.90;;;;;;4872116;29;20666;-87
2022/02/12 04:50:32;;;;;;;73.32;23.00;;;-1.10;99.90;;;;;;4809774;29;20210;-86
2022/02/12 04:55:58;;;;;;;79.60;23.75;;;-1.10;99.90;;;;;;4933243;23;20230;-92
2022/02/12 04:58:52;;;;;;;72.43;19.48;;;-1.10;1.00;;;;;;4861481;29;20178;-92
2022/02/12 05:01:30;;;;;;;77.30;24.35;;;-1.10;1.00;;;;;;4860225;29;20175;-92
2022/02/12 05:04:12;;;;;;;74.60;26.33;;;-1.10;1.00;;;;;;4860554;29;20670;-92
2022/02/12 05:07:12;;;;;;;79.55;27.70;;;-1.00;1.00;;;;;;4860756;29;20211;-92
2022/02/12 05:10:03;;;;;;;76.85;25.40;;;-0.90;1.00;;;;;;4861977;29;20290;-92
2022/02/12 05:12:29;;;;;;;74.72;25.35;;;-0.90;1.00;;;;;;4860746;29;20179;-92
2022/02/12 05:15:15;;;;;;;;;;;;;;;;;;;;;
2022/02/12 05:17:50;;;;;;;85.28;30.05;;;-0.90;1.00;;;;;;4860699;29;20187;-92
2022/02/12 05:20:48;;;;;;;77.60;30.92;;;-0.80;1.00;;;;;;4860916;29;20162;-92
2022/02/12 05:23:34;;;;;;;74.70;27.33;;;-0.80;1.00;;;;;;4829689;29;20187;-92
2022/02/12 05:26:27;;;;;;;80.85;32.70;;;-0.80;1.00;;;;;;4862971;29;20191;-92
2022/02/12 05:29:01;;;;;;;86.78;29.90;;;-0.90;1.00;;;;;;4808291;29;20209;-92
2022/02/12 05:31:46;;;;;;;75.32;25.48;;;-0.90;1.00;;;;;;4842503;29;20211;-92
2022/02/12 05:34:22;;;;;;;75.05;24.20;;;-1.00;1.00;;;;;;4847515;29;20224;-92
2022/02/12 05:36:57;;;;;;;80.20;29.80;;;-0.90;1.00;;;;;;4864417;29;20195;-92
2022/02/12 05:39:54;;;;;;;76.30;30.10;;;-1.00;1.00;;;;;;4865867;29;20174;-92
2022/02/12 05:42:46;;;;;;;80.22;32.38;;;-1.00;1.00;;;;;;4864192;29;20186;-92
2022/02/12 05:45:24;;;;;;;76.13;23.20;;;-1.10;1.00;;;;;;4831897;29;20195;-92
2022/02/12 05:48:00;;;;;;;81.70;33.55;;;-1.10;1.00;;;;;;4864221;29;20195;-92
2022/02/12 05:50:29;;;;;;;81.35;23.85;;;-1.10;1.00;;;;;;4865495;29;20171;-92
2022/02/12 05:53:09;;;;;;;82.40;30.20;;;-1.20;1.00;;;;;;4864400;29;20174;-92
2022/02/12 05:56:10;;;;;;;77.65;27.25;;;-1.20;1.00;;;;;;4861894;29;20305;-92
2022/02/12 05:59:13;;;;;;;;;;;;;;;;;;;;;
2022/02/12 06:01:29;;;;;;;77.50;24.67;;;-1.10;1.00;;;;;;4863433;29;20571;-92
2022/02/12 06:03:58;;;;;;;82.13;27.75;;;-1.10;1.00;;;;;;4864464;29;20171;-92
2022/02/12 06:06:39;;;;;;;84.25;30.20;;;-1.00;1.00;;;;;;4864354;29;20290;-92
2022/02/12 06:12:18;;;;;;;80.95;26.45;;;-1.00;1.00;;;;;;4864550;29;20234;-92
2022/02/12 06:15:10;;;;;;;81.40;29.45;;;-1.00;89.30;;;;;;4865398;29;20148;-92
2022/02/12 06:18:03;;;;;;;90.72;35.28;;;-1.10;99.90;;;;;;4864485;29;20164;-92
2022/02/12 06:20:37;;;;;;;76.50;29.33;;;-1.10;99.90;;;;;;4863799;29;20186;-92
2022/02/12 06:23:28;;;;;;;80.47;29.45;;;-1.00;99.90;;;;;;4865769;29;20266;-92
2022/02/12 06:26:03;;;;;;;85.13;35.88;;;-1.00;99.90;;;;;;4864148;29;20195;-92
2022/02/12 06:29:17;;;;;;;81.20;38.20;;;-1.10;99.90;;;;;;4863271;29;20199;-92
2022/02/12 06:31:54;;;;;;;78.15;26.08;;;-1.10;99.90;;;;;;4848240;29;20656;-92
2022/02/12 06:34:31;;;;;;;81.50;35.10;;;-1.00;99.90;;;;;;4864903;29;20178;-92
2022/02/12 06:37:05;;;;;;;81.07;30.73;;;-1.00;99.90;;;;;;4862450;29;20187;-92
2022/02/12 06:39:37;;;;;;;81.45;37.13;;;-0.90;99.90;;;;;;4863629;29;20187;-92
2022/02/12 06:42:03;;;;;;;79.97;37.13;;;-1.00;99.90;;;;;;4864071;29;20171;-92
2022/02/12 06:44:47;;;;;;;88.70;40.50;;;-1.00;99.90;;;;;;4863927;29;20593;-92
2022/02/12 06:47:22;;;;;;;81.05;39.78;;;-0.90;99.90;;;;;;4863220;29;20177;-93
2022/02/12 06:52:42;;;;;;;83.07;40.15;;;-0.90;99.90;;;;;;4843732;29;20180;-92
2022/02/12 06:55:34;;;;;;;82.47;43.25;;;-0.90;99.90;;;;;;4858573;29;20219;-92
2022/02/12 06:58:09;;;;;;;89.47;38.33;;;-1.00;99.90;;;;;;4863548;29;20162;-92
2022/02/12 07:00:43;;;;;;;81.22;37.08;;;-1.00;99.90;;;;;;4863259;29;20175;-92
2022/02/12 07:03:12;;;;;;;83.90;42.38;;;-1.00;99.90;;;;;;4863743;29;20189;-92
2022/02/12 07:05:57;;;;;;;81.88;36.42;;;-1.00;99.90;;;;;;4862626;29;20259;-92
2022/02/12 07:08:35;;;;;;;81.13;30.40;;;-0.90;99.90;;;;;;4862096;29;20278;-92
2022/02/12 07:11:27;;;;;;;82.55;36.50;;;-0.90;99.90;;;;;;4863752;29;20178;-92
2022/02/12 07:14:02;;;;;;;82.15;29.20;;;-1.00;99.90;;;;;;4858689;29;20660;-92
2022/02/12 07:16:40;;;;;;;;;;;;;;;;;;;;;
2022/02/12 07:19:36;;;;;;;81.32;36.25;;;-0.90;99.90;;;;;;4864047;29;20174;-92
2022/02/12 07:22:57;;;;;;;81.97;33.60;;;-0.90;99.90;;;;;;4862883;29;20187;-92
2022/02/12 07:26:25;;;;;;;74.28;22.75;;;-0.80;99.90;;;;;;4858150;29;20207;-92
2022/02/12 07:29:05;;;;;;;78.43;29.65;;;-0.80;99.90;;;;;;4863374;29;20608;-92
2022/02/12 07:31:37;;;;;;;84.35;38.30;;;-0.80;99.90;;;;;;4861994;29;20163;-92
2022/02/12 07:34:16;;;;;;;88.25;40.45;;;-0.70;99.90;;;;;;4863260;29;20191;-92
2022/02/12 07:40:47;;;;;;;;;;;;;;;;;;;;;
2022/02/12 07:57:38;;;;;;;89.22;41.72;;;-0.10;99.90;;;;;;5068315;23;20226;-92
2022/02/12 08:00:20;;;;;;;91.28;37.03;;;0.00;99.90;;;;;;4808575;29;20227;-92
2022/02/12 08:02:54;;;;;;;86.10;39.20;;;0.20;99.90;;;;;;4879355;29;20167;-92
2022/02/12 08:06:02;;;;;;;89.10;41.05;;;0.20;99.90;;;;;;4879060;29;20561;-92
2022/02/12 08:08:43;;;;;;;85.82;37.00;;;0.20;99.90;;;;;;4880740;29;20220;-92
2022/02/12 08:11:26;;;;;;;86.00;38.95;;;0.20;99.90;;;;;;4879008;29;20178;-92
2022/02/12 08:13:57;;;;;;;89.40;39.80;;;0.30;99.90;;;;;;4878324;29;20543;-92
2022/02/12 08:16:37;;;;;;;86.80;49.33;;;0.40;99.90;;;;;;4879349;29;20205;-91
2022/02/12 08:19:22;;;;;;;82.93;40.85;;;0.30;99.90;;;;;;4878720;29;20173;-91
2022/02/12 08:21:51;;;;;;;88.47;40.38;;;0.40;99.90;;;;;;4878914;29;20190;-91
2022/02/12 08:24:17;;;;;;;83.88;39.88;;;0.30;99.90;;;;;;4878864;29;20182;-90
2022/02/12 08:26:46;;;;;;;85.10;51.13;;;0.40;99.90;;;;;;4880344;29;20191;-91
2022/02/12 08:29:24;;;;;;;81.80;38.35;;;0.40;99.90;;;;;;4878518;29;20612;-91
2022/02/12 08:31:59;;;;;;;85.95;44.03;;;0.50;99.90;;;;;;4878707;29;20178;-91
2022/02/12 08:34:27;;;;;;;83.85;40.28;;;0.50;99.90;;;;;;4878538;29;20174;-91
2022/02/12 08:36:54;;;;;;;87.43;41.88;;;0.50;99.90;;;;;;4878748;29;20536;-90
2022/02/12 08:39:23;;;;;;;83.30;38.53;;;0.60;99.90;;;;;;4879672;29;20521;-91
2022/02/12 08:41:49;;;;;;;88.88;42.08;;;0.60;99.90;;;;;;4879733;29;20171;-90
2022/02/12 08:44:16;;;;;;;89.93;51.58;;;0.60;99.90;;;;;;4879253;29;20171;-90
2022/02/12 08:46:43;;;;;;;100.78;57.53;;;0.60;99.90;;;;;;4878570;29;20194;-91
2022/02/12 08:49:12;;;;;;;93.78;60.95;;;0.60;99.90;;;;;;4878519;29;20229;-90
2022/02/12 08:51:39;;;;;;;90.13;62.35;;;0.70;99.90;;;;;;4878654;29;20662;-90
2022/02/12 08:54:10;;;;;;;90.15;52.65;;;0.80;99.90;;;;;;4879592;29;20175;-90
2022/02/12 08:56:38;;;;;;;91.07;44.85;;;0.90;99.90;;;;;;4878673;29;20202;-90
2022/02/12 08:59:08;;;;;;;87.22;48.22;;;1.00;99.90;;;;;;4878882;29;20170;-90
2022/02/12 09:01:37;;;;;;;88.55;40.20;;;1.00;99.90;;;;;;4882903;29;20699;-90
2022/02/12 09:04:04;;;;;;;86.28;50.20;;;1.10;99.90;;;;;;4882501;29;20190;-90
2022/02/12 09:06:29;;;;;;;89.65;57.03;;;1.10;99.90;;;;;;4882097;29;20205;-90
2022/02/12 09:09:04;;;;;;;92.27;54.90;;;1.20;99.90;;;;;;4882150;29;20659;-90
2022/02/12 09:11:30;;;;;;;90.57;44.10;;;1.20;99.90;;;;;;4882006;29;20530;-90
2022/02/12 09:13:57;;;;;;;89.93;51.65;;;1.30;99.90;;;;;;4883084;29;20167;-90
2022/02/12 09:16:25;;;;;;;90.20;53.08;;;1.30;99.90;;;;;;4882979;29;20198;-90
2022/02/12 09:18:54;;;;;;;88.90;53.60;;;1.40;99.90;;;;;;4883049;29;20175;-90
2022/02/12 09:21:23;;;;;;;87.82;49.58;;;1.50;99.90;;;;;;4881905;29;20178;-90
2022/02/12 09:23:51;;;;;;;89.47;50.78;;;1.50;99.90;;;;;;4882879;29;20167;-90
2022/02/12 09:26:21;;;;;;;91.85;48.88;;;1.60;99.90;;;;;;4882834;29;20575;-90
2022/02/12 09:28:50;;;;;;;87.55;44.03;;;1.70;90.50;;;;;;4881796;29;20194;-90
2022/02/12 09:31:22;;;;;;;85.93;42.10;;;1.70;1.00;;;;;;4883010;29;20266;-90
2022/02/12 09:33:53;;;;;;;89.68;36.30;;;1.80;1.00;;;;;;4882715;29;20199;-90
2022/02/12 09:36:19;;;;;;;83.32;36.03;;;1.90;1.00;;;;;;4881458;29;20190;-90
2022/02/12 09:38:50;;;;;;;88.78;34.85;;;1.90;99.90;;;;;;4882679;29;20539;-90
2022/02/12 09:41:23;;;;;;;86.07;35.50;;;1.90;99.90;;;;;;4881437;29;20222;-90
2022/02/12 09:43:53;;;;;;;82.63;33.40;;;2.00;99.90;;;;;;4881353;29;20167;-90
2022/02/12 09:46:27;;;;;;;88.13;38.83;;;2.00;97.00;;;;;;4882699;29;20671;-90
2022/02/12 09:48:54;;;;;;;79.47;33.25;;;2.00;1.00;;;;;;4881033;29;20301;-89
2022/02/12 09:51:33;;;;;;;83.22;36.25;;;2.00;1.00;;;;;;4882707;29;20223;-90
2022/02/12 09:54:02;;;;;;;82.80;34.17;;;2.10;1.00;;;;;;4882692;29;20219;-90
2022/02/12 09:56:27;;;;;;;83.88;33.78;;;2.20;1.00;;;;;;4882311;29;20321;-90
2022/02/12 09:58:56;;;;;;;85.87;37.80;;;2.30;1.00;;;;;;4882578;29;20174;-90
2022/02/12 10:01:24;;;;;;;81.70;32.45;;;2.20;99.90;;;;;;4881026;29;20419;-89
2022/02/12 10:03:57;;;;;;;80.70;33.30;;;2.30;99.90;;;;;;4882490;29;20583;-90
2022/02/12 10:06:41;;;;;;;78.70;32.22;;;2.40;99.90;;;;;;4882418;29;20264;-90
2022/02/12 10:09:16;;;;;;;84.45;23.38;;;2.50;99.90;;;;;;4882083;29;20194;-89
2022/02/12 10:11:51;;;;;;;93.88;40.97;;;2.50;97.90;;;;;;4881761;29;20158;-89
2022/02/12 10:14:19;;;;;;;84.68;25.77;;;2.60;1.00;;;;;;4882948;29;20165;-89
2022/02/12 10:17:00;;;;;;;85.20;18.63;;;2.60;99.90;;;;;;4882241;29;20186;-89
2022/02/12 10:19:43;;;;;;;81.00;16.83;;;2.80;1.00;;;;;;4880763;29;20174;-89
2022/02/12 10:22:21;;;;;;;76.22;17.13;;;2.90;1.00;;;;;;4882239;29;20147;-89
2022/02/12 10:25:04;;;;;;;76.82;14.70;;;3.00;99.90;;;;;;4880895;29;20186;-89
2022/02/12 10:27:30;;;;;;;73.82;13.50;;;3.00;99.90;;;;;;4881178;29;20239;-89
2022/02/12 10:30:05;;;;;;;75.28;11.75;;;3.00;1.00;;;;;;4880459;29;20248;-89
2022/02/12 10:32:59;;;;;;;;;;;;;;;;;;;;;
2022/02/12 10:35:33;;;;;;;75.70;11.23;;;3.20;99.90;;;;;;4882345;29;20521;-89
2022/02/12 10:38:15;;;;;;;70.50;12.05;;;3.20;99.90;;;;;;4880350;29;20206;-89
2022/02/12 10:41:01;;;;;;;73.15;10.10;;;3.30;34.40;;;;;;4881111;29;20178;-89
2022/02/12 10:43:27;;;;;;;76.80;11.40;;;3.30;1.00;;;;;;4880291;29;20178;-89
2022/02/12 10:45:53;;;;;;;71.73;11.00;;;3.40;1.00;;;;;;4881483;29;20186;-89
2022/02/12 10:48:29;;;;;;;73.18;10.82;;;3.50;1.00;;;;;;4881669;29;20667;-89
2022/02/12 10:51:14;;;;;;;72.72;9.57;;;3.60;99.90;;;;;;4880075;29;20192;-89
2022/02/12 10:54:05;;;;;;;75.13;12.00;;;3.70;99.90;;;;;;4879965;29;20182;-89
2022/02/12 10:56:51;;;;;;;72.47;10.30;;;4.00;1.00;;;;;;4881284;29;20301;-90
2022/02/12 10:59:23;;;;;;;80.15;9.35;;;4.20;1.00;;;;;;4880268;29;20183;-89
2022/02/12 11:01:50;;;;;;;75.50;8.80;;;4.40;99.90;;;;;;4881786;29;20151;-89
2022/02/12 11:04:19;;;;;;;80.40;9.30;;;4.50;74.80;;;;;;4880027;29;20176;-89
2022/02/12 11:06:52;;;;;;;68.78;10.52;;;4.60;22.30;;;;;;4881005;29;20190;-89
2022/02/12 11:09:18;;;;;;;72.45;8.82;;;4.60;1.00;;;;;;4881014;29;20536;-89
2022/02/12 11:11:45;;;;;;;75.25;9.32;;;4.70;1.00;;;;;;4880818;29;20213;-89
2022/02/12 11:14:13;;;;;;;73.18;10.82;;;4.70;1.00;;;;;;4879718;29;20174;-89
2022/02/12 11:16:40;;;;;;;73.30;10.20;;;4.80;1.00;;;;;;4879638;29;20198;-89
2022/02/12 11:19:09;;;;;;;75.88;8.85;;;4.90;1.00;;;;;;4879653;29;20185;-89
2022/02/12 11:21:39;;;;;;;72.18;6.68;;;4.90;1.00;;;;;;4880847;29;20658;-89
2022/02/12 11:24:08;;;;;;;72.10;6.50;;;5.10;1.00;;;;;;4878902;29;20189;-88
2022/02/12 11:26:41;;;;;;;67.88;6.25;;;5.20;1.00;;;;;;4880662;29;20196;-87
2022/02/12 11:29:40;;;;;;;67.03;5.95;;;5.20;1.00;;;;;;4879379;29;20199;-87
2022/02/12 11:32:21;;;;;;;70.18;5.93;;;5.20;1.00;;;;;;4880988;29;20646;-87
2022/02/12 11:34:58;;;;;;;69.50;6.15;;;5.20;1.00;;;;;;4880666;29;20189;-87
2022/02/12 11:37:33;;;;;;;68.00;6.78;;;5.20;1.00;;;;;;4879405;29;20190;-87
2022/02/12 11:40:22;;;;;;;73.15;6.65;;;5.30;1.00;;;;;;4879327;29;20189;-87
2022/02/12 11:43:11;;;;;;;69.00;6.45;;;5.40;1.00;;;;;;4880389;29;20175;-87
2022/02/12 11:46:03;;;;;;;71.40;6.07;;;5.50;1.00;;;;;;4880350;29;20186;-87
2022/02/12 11:48:36;;;;;;;67.72;5.45;;;5.60;1.00;;;;;;4857443;29;20218;-87
2022/02/12 11:51:19;;;;;;;68.15;5.00;;;5.60;1.00;;;;;;4880884;29;20203;-87
2022/02/12 11:53:54;;;;;;;70.57;5.25;;;5.80;1.00;;;;;;4880915;29;20211;-87
2022/02/12 11:56:20;;;;;;;67.82;5.55;;;5.80;1.00;;;;;;4878844;29;20205;-87
2022/02/12 11:58:47;;;;;;;69.03;6.63;;;6.00;1.00;;;;;;4879213;29;20547;-87
2022/02/12 12:01:50;;;;;;;69.22;6.22;;;6.00;1.00;;;;;;4879206;29;20163;-87
2022/02/12 12:04:22;;;;;;;71.70;5.63;;;6.00;1.00;;;;;;4879148;29;20324;-87
2022/02/12 12:07:20;;;;;;;72.65;6.80;;;6.10;1.00;;;;;;4878756;29;20191;-87
2022/02/12 12:09:52;;;;;;;68.13;6.30;;;6.20;1.00;;;;;;4879828;29;20237;-87
2022/02/12 12:12:22;;;;;;;70.10;6.47;;;6.40;1.00;;;;;;4880237;29;20564;-87
2022/02/12 12:15:29;;;;;;;67.55;6.20;;;6.40;1.00;;;;;;4878515;29;20205;-87
2022/02/12 12:18:11;;;;;;;67.00;7.82;;;6.40;1.00;;;;;;4878928;29;20178;-87
2022/02/12 12:20:52;;;;;;;69.18;10.60;;;6.30;1.00;;;;;;4878659;29;20202;-87
2022/02/12 12:23:18;;;;;;;68.13;11.63;;;6.40;1.00;;;;;;4879288;29;20234;-87
2022/02/12 12:26:00;;;;;;;68.95;10.35;;;6.40;1.00;;;;;;4878502;29;20205;-87
2022/02/12 12:28:42;;;;;;;67.57;8.90;;;6.20;1.00;;;;;;4880002;29;20194;-87
2022/02/12 12:31:17;;;;;;;69.63;9.43;;;6.20;1.00;;;;;;4879749;29;20174;-87
2022/02/12 12:33:46;;;;;;;68.28;11.80;;;6.10;1.00;;;;;;4879434;29;20198;-87
2022/02/12 12:36:27;;;;;;;73.55;9.13;;;6.00;1.00;;;;;;4878608;29;20190;-87
2022/02/12 12:39:03;;;;;;;;;;;;;;;;;;;;;
2022/02/12 12:41:54;;;;;;;70.50;7.32;;;6.00;1.00;;;;;;4879629;29;20184;-88
2022/02/12 12:47:29;;;;;;;69.65;6.40;;;6.00;1.00;;;;;;4879340;29;20265;-87
2022/02/12 12:50:26;;;;;;;69.95;6.00;;;6.00;1.00;;;;;;4878505;29;20167;-87
2022/02/12 12:53:36;;;;;;;70.63;5.90;;;6.00;1.00;;;;;;4879578;29;20512;-88
2022/02/12 12:56:59;;;;;;;67.45;6.25;;;6.10;1.00;;;;;;4878464;29;20197;-88
2022/02/12 12:59:57;;;;;;;70.90;5.30;;;6.10;1.00;;;;;;4840502;29;20199;-88
2022/02/12 13:02:51;;;;;;;75.40;5.72;;;6.10;1.00;;;;;;4840374;29;20180;-88
2022/02/12 13:05:36;;;;;;;72.30;6.95;;;6.00;1.00;;;;;;4826353;29;20768;-88
2022/02/12 13:08:10;;;;;;;75.20;6.55;;;6.10;1.00;;;;;;4840114;29;20210;-88
2022/02/12 13:10:42;;;;;;;71.93;5.40;;;6.10;1.00;;;;;;4871451;29;20185;-88
2022/02/12 13:13:37;;;;;;;;;;;;;;;;;;;;;
2022/02/12 13:16:12;;;;;;;68.05;6.03;;;6.30;1.00;;;;;;4879745;29;20688;-88
2022/02/12 13:18:53;;;;;;;73.05;12.35;;;6.40;1.00;;;;;;4878563;29;20174;-88
2022/02/12 13:21:22;;;;;;;71.13;14.95;;;6.40;1.00;;;;;;4878004;29;20170;-88
2022/02/12 13:24:15;;;;;;;70.93;8.80;;;6.40;1.00;;;;;;4879048;29;20263;-88
2022/02/12 13:26:44;;;;;;;70.60;13.38;;;6.40;1.00;;;;;;4878590;29;20678;-88
2022/02/12 13:29:36;;;;;;;74.40;13.52;;;6.40;1.00;;;;;;4878463;29;20207;-88
2022/02/12 13:32:11;;;;;;;70.00;8.45;;;6.40;1.00;;;;;;4878737;29;20178;-88
2022/02/12 13:34:41;;;;;;;77.20;12.13;;;6.40;1.00;;;;;;4878438;29;20182;-88
2022/02/12 13:37:26;;;;;;;70.40;13.77;;;6.40;1.00;;;;;;4879068;29;20580;-88
2022/02/12 13:40:36;;;;;;;69.28;10.70;;;6.40;1.00;;;;;;4879342;29;20183;-88
2022/02/12 13:43:28;;;;;;;73.35;12.27;;;6.50;1.00;;;;;;4873100;29;20187;-88
2022/02/12 13:46:03;;;;;;;73.45;12.90;;;6.50;1.00;;;;;;4878839;29;20191;-90
2022/02/12 13:49:15;;;;;;;68.63;11.93;;;6.60;1.00;;;;;;4881170;29;20182;-90
2022/02/12 13:52:17;;;;;;;69.68;9.68;;;6.60;1.00;;;;;;4881279;29;20182;-90
2022/02/12 13:55:20;;;;;;;66.95;9.00;;;6.70;1.00;;;;;;4880794;29;20177;-90
2022/02/12 13:58:28;;;;;;;67.45;9.30;;;6.60;1.00;;;;;;4881348;29;20225;-88
2022/02/12 14:01:05;;;;;;;71.70;10.43;;;6.60;1.00;;;;;;4881700;29;20260;-88
2022/02/12 14:04:29;;;;;;;73.25;9.18;;;6.60;1.00;;;;;;4881502;29;20182;-88
2022/02/12 14:07:06;;;;;;;70.22;13.32;;;6.50;1.00;;;;;;4881085;29;20198;-88
2022/02/12 14:12:52;;;;;;;70.05;11.38;;;6.50;1.00;;;;;;4875238;29;20179;-88
2022/02/12 14:15:44;;;;;;;75.05;14.20;;;6.60;1.00;;;;;;4880999;29;20263;-88
2022/02/12 14:18:15;;;;;;;67.45;7.38;;;6.60;1.00;;;;;;4880553;29;20233;-88
2022/02/12 14:21:07;;;;;;;71.13;10.18;;;6.60;1.00;;;;;;4882181;29;20163;-88
2022/02/12 14:23:41;;;;;;;68.78;11.68;;;6.60;1.00;;;;;;4880028;29;20226;-88
2022/02/12 14:26:18;;;;;;;67.47;9.70;;;6.60;1.00;;;;;;4879598;29;20210;-88
2022/02/12 14:29:24;;;;;;;71.13;15.68;;;6.50;1.00;;;;;;4881429;29;20240;-88
2022/02/12 14:32:13;;;;;;;70.47;8.88;;;6.60;1.00;;;;;;4875688;29;20278;-88